Time;durP1;ratioP1;P1;durP2;ratioP2;P2;SDS_P1;SDS_P2;PMS_P1;PMS_P2;Temp;Humidity;BMP_temperature;BMP_pressure;BME280_temperature;BME280_humidity;BME280_pressure;Samples;Min_cycle;Max_cycle;Signal;HPM_P1;HPM_P2
2022/12/06 00:02:07;;;;;;;11.95;5.25;;;;;;;-5.91;56.39;101832.00;1669180;81;21110;-75
2022/12/06 00:04:34;;;;;;;11.38;5.47;;;;;;;-5.94;56.46;101830.27;1704309;83;20990;-76
2022/12/06 00:07:01;;;;;;;13.15;5.40;;;;;;;-5.96;56.53;101828.11;1704353;83;21874;-75
2022/12/06 00:09:29;;;;;;;13.03;5.45;;;;;;;-5.97;56.58;101822.95;1723441;81;20952;-75
2022/12/06 00:11:56;;;;;;;10.48;5.00;;;;;;;-5.98;56.60;101827.63;1731904;81;21529;-75
2022/12/06 00:14:24;;;;;;;11.78;5.37;;;;;;;-6.00;56.64;101821.19;1717321;82;21004;-75
2022/12/06 00:16:51;;;;;;;8.15;4.50;;;;;;;-6.02;56.70;101820.31;1712673;81;21597;-75
2022/12/06 00:19:21;;;;;;;9.98;4.80;;;;;;;-6.03;56.75;101822.45;1719747;81;22377;-76
2022/12/06 00:21:48;;;;;;;11.68;4.97;;;;;;;-6.05;56.79;101822.86;1713478;81;21039;-75
2022/12/06 00:24:17;;;;;;;13.80;5.20;;;;;;;-6.07;56.87;101823.27;1687617;81;21392;-75
2022/12/06 00:26:45;;;;;;;8.88;4.92;;;;;;;-6.09;56.95;101822.36;1683743;83;20992;-76
2022/12/06 00:29:15;;;;;;;9.48;5.12;;;;;;;-6.11;57.05;101816.34;1686638;80;21044;-75
2022/12/06 00:31:42;;;;;;;11.33;5.37;;;;;;;-6.12;57.08;101813.33;1695828;81;22495;-75
2022/12/06 00:34:09;;;;;;;9.40;4.70;;;;;;;-6.16;57.16;101813.73;1694632;81;21008;-75
2022/12/06 00:36:37;;;;;;;14.63;5.67;;;;;;;-6.17;57.26;101814.58;1678173;82;20999;-75
2022/12/06 00:39:09;;;;;;;11.30;5.22;;;;;;;-6.18;57.27;101817.97;1690049;81;21462;-75
2022/12/06 00:41:36;;;;;;;10.30;5.17;;;;;;;-6.21;57.33;101809.36;1705406;83;21044;-75
2022/12/06 00:44:02;;;;;;;9.55;5.30;;;;;;;-6.22;57.39;101813.64;1708008;83;22573;-76
2022/12/06 00:46:30;;;;;;;14.43;5.40;;;;;;;-6.25;57.49;101808.90;1715904;82;20913;-75
2022/12/06 00:48:58;;;;;;;9.33;4.90;;;;;;;-6.29;57.57;101800.27;1701240;82;21721;-75
2022/12/06 00:51:28;;;;;;;9.30;5.00;;;;;;;-6.30;57.65;101810.11;1695158;82;21012;-75
2022/12/06 00:53:55;;;;;;;9.40;5.30;;;;;;;-6.33;57.71;101804.08;1679194;84;21075;-75
2022/12/06 00:56:21;;;;;;;10.65;5.30;;;;;;;-6.35;57.75;101801.07;1713391;81;21917;-75
2022/12/06 00:58:48;;;;;;;16.00;5.25;;;;;;;-6.38;57.83;101803.58;1721587;81;20969;-75
2022/12/06 01:01:20;;;;;;;9.43;5.22;;;;;;;-6.39;57.87;101807.42;1712778;82;20961;-75
2022/12/06 01:03:50;;;;;;;11.65;5.00;;;;;;;-6.43;57.95;101806.53;1696965;82;21008;-76
2022/12/06 01:06:18;;;;;;;10.25;4.97;;;;;;;-6.45;58.05;101804.37;1704339;82;21047;-75
2022/12/06 01:08:45;;;;;;;10.95;4.80;;;;;;;-6.45;58.09;101799.66;1706096;82;21825;-75
2022/12/06 01:11:13;;;;;;;11.18;5.35;;;;;;;-6.46;58.14;101805.64;1699869;82;20952;-75
2022/12/06 01:13:41;;;;;;;10.05;5.42;;;;;;;-6.52;58.23;101793.55;1712092;82;21556;-75
2022/12/06 01:16:11;;;;;;;12.85;5.05;;;;;;;-6.56;58.32;101793.09;1735280;80;21010;-75
2022/12/06 01:18:38;;;;;;;11.48;5.35;;;;;;;-6.56;58.44;101790.91;1726303;82;21056;-75
2022/12/06 01:21:06;;;;;;;10.35;5.03;;;;;;;-6.58;58.44;101795.17;1710178;81;21987;-75
2022/12/06 01:23:33;;;;;;;10.80;4.95;;;;;;;-6.61;58.53;101788.30;1726624;81;20992;-75
2022/12/06 01:26:00;;;;;;;10.93;5.17;;;;;;;-6.64;58.55;101785.70;1732072;81;21129;-76
2022/12/06 01:28:27;;;;;;;11.43;4.87;;;;;;;-6.66;58.56;101788.25;1736246;82;21050;-75
2022/12/06 01:30:53;;;;;;;11.12;5.58;;;;;;;-6.68;58.67;101782.20;1724186;82;21060;-75
2022/12/06 01:33:20;;;;;;;11.08;5.37;;;;;;;-6.68;58.71;101780.05;1733239;82;22329;-75
2022/12/06 01:35:47;;;;;;;9.05;4.83;;;;;;;-6.68;58.74;101778.77;1718751;82;21071;-76
2022/12/06 01:38:13;;;;;;;10.28;5.08;;;;;;;-6.70;58.77;101775.32;1730028;81;20993;-75
2022/12/06 01:40:43;;;;;;;11.75;5.50;;;;;;;-6.70;58.75;101781.32;1737265;81;21003;-75
2022/12/06 01:43:38;;;;;;;9.48;4.67;;;;;;;-6.70;58.80;101780.04;1659144;84;21047;-76
2022/12/06 01:46:34;;;;;;;9.68;4.97;;;;;;;-6.69;58.79;101777.05;1683255;83;22389;-75
2022/12/06 01:49:12;;;;;;;10.72;5.15;;;;;;;-6.72;58.79;101775.73;1702668;83;21013;-76
2022/12/06 01:51:59;;;;;;;10.10;5.10;;;;;;;-6.75;58.84;101775.70;1713744;81;21016;-75
2022/12/06 01:54:25;;;;;;;10.70;5.15;;;;;;;-6.76;58.86;101772.66;1685209;83;21557;-75
2022/12/06 01:56:52;;;;;;;10.75;5.00;;;;;;;-6.78;58.91;101771.36;1685204;84;20953;-75
2022/12/06 01:59:19;;;;;;;15.78;5.35;;;;;;;-6.79;58.93;101771.34;1669753;83;22069;-75
2022/12/06 02:01:46;;;;;;;9.20;4.65;;;;;;;-6.81;58.99;101768.75;1723172;82;21055;-75
2022/12/06 02:04:12;;;;;;;11.33;5.03;;;;;;;-6.81;59.03;101766.61;1733317;82;21386;-75
2022/12/06 02:06:38;;;;;;;8.40;4.62;;;;;;;-6.81;59.02;101769.17;1732582;81;21083;-76
2022/12/06 02:09:07;;;;;;;10.20;4.83;;;;;;;-6.82;59.07;101762.31;1727322;82;21081;-75
2022/12/06 02:11:33;;;;;;;10.88;4.53;;;;;;;-6.83;59.12;101760.17;1680851;84;22582;-75
2022/12/06 02:14:00;;;;;;;11.75;4.75;;;;;;;-6.82;59.16;101762.31;1667618;84;21073;-75
2022/12/06 02:17:02;;;;;;;8.93;4.92;;;;;;;-6.83;59.17;101760.59;1705700;81;20994;-75
2022/12/06 02:20:00;;;;;;;10.15;5.00;;;;;;;-6.84;59.19;101761.44;1713974;83;21628;-76
2022/12/06 02:22:57;;;;;;;11.30;5.58;;;;;;;-6.86;59.23;101757.96;1723778;83;21032;-75
2022/12/06 02:26:04;;;;;;;11.78;5.55;;;;;;;-6.86;59.24;101761.39;1714866;82;22000;-74
2022/12/06 02:29:15;;;;;;;10.43;4.90;;;;;;;-6.88;59.29;101766.94;1714271;81;21008;-74
2022/12/06 02:31:56;;;;;;;10.40;5.28;;;;;;;-6.89;59.32;101760.08;1720994;82;21612;-74
2022/12/06 02:34:35;;;;;;;14.18;5.62;;;;;;;-6.92;59.36;101757.05;1706134;81;20996;-74
2022/12/06 02:37:21;;;;;;;12.18;5.60;;;;;;;-6.95;59.40;101758.30;1709585;81;21182;-74
2022/12/06 02:40:00;;;;;;;11.95;5.28;;;;;;;-6.98;59.48;101753.10;1709200;82;21947;-74
2022/12/06 02:42:41;;;;;;;10.95;5.08;;;;;;;-7.01;59.53;101739.36;1710356;81;21126;-74
2022/12/06 02:45:17;;;;;;;10.15;5.28;;;;;;;-7.02;59.63;101741.49;1728609;82;20994;-74
2022/12/06 02:47:44;;;;;;;11.48;5.20;;;;;;;-7.05;59.65;101746.14;1703076;81;20986;-74
2022/12/06 02:50:30;;;;;;;10.18;4.53;;;;;;;-7.08;59.70;101735.83;1706619;82;21502;-74
2022/12/06 02:52:59;;;;;;;12.03;5.45;;;;;;;-7.08;59.78;101735.83;1701951;82;22008;-75
2022/12/06 02:55:25;;;;;;;11.18;5.35;;;;;;;-7.09;59.83;101739.25;1718090;82;20933;-74
2022/12/06 02:57:53;;;;;;;11.63;5.42;;;;;;;-7.11;59.91;101731.09;1717650;82;21005;-76
2022/12/06 03:00:40;;;;;;;10.50;5.15;;;;;;;-7.17;59.90;101726.72;1725903;81;21364;-74
2022/12/06 03:03:31;;;;;;;12.75;5.47;;;;;;;-7.17;59.90;101726.72;1732227;82;21098;-75
2022/12/06 03:06:22;;;;;;;11.20;5.35;;;;;;;-7.16;60.09;101726.29;1708031;82;21835;-74
2022/12/06 03:09:24;;;;;;;12.50;5.12;;;;;;;-7.16;60.14;101727.58;1726692;81;21048;-74
2022/12/06 03:12:05;;;;;;;10.95;4.95;;;;;;;-7.18;60.21;101718.57;1676033;83;20999;-74
2022/12/06 03:14:52;;;;;;;11.40;5.67;;;;;;;-7.18;60.26;101717.71;1713674;82;21123;-74
2022/12/06 03:17:24;;;;;;;13.55;5.50;;;;;;;-7.19;60.29;101724.55;1728888;81;21491;-74
2022/12/06 03:19:58;;;;;;;10.93;4.97;;;;;;;-7.20;60.36;101717.69;1712378;82;21833;-75
2022/12/06 03:22:29;;;;;;;12.90;5.62;;;;;;;-7.20;60.42;101720.26;1712091;82;20992;-74
2022/12/06 03:24:56;;;;;;;9.93;5.05;;;;;;;-7.22;60.46;101714.25;1725359;81;21056;-72
2022/12/06 03:27:22;;;;;;;11.25;5.03;;;;;;;-7.23;60.48;101715.95;1714401;82;20961;-74
2022/12/06 03:29:55;;;;;;;16.07;5.45;;;;;;;-7.26;60.43;101710.75;1679523;81;21482;-74
2022/12/06 03:32:24;;;;;;;12.25;5.62;;;;;;;-7.25;60.57;101717.61;1652857;83;21843;-74
2022/12/06 03:34:53;;;;;;;12.90;5.78;;;;;;;-7.26;60.58;101718.45;1677659;83;21489;-74
2022/12/06 03:37:22;;;;;;;11.57;5.83;;;;;;;-7.26;60.63;101717.59;1668497;84;21043;-74
2022/12/06 03:40:17;;;;;;;12.82;6.37;;;;;;;-7.26;60.68;101717.59;1671565;85;21707;-74
2022/12/06 03:42:46;;;;;;;12.37;5.95;;;;;;;-7.28;60.72;101714.14;1721046;81;20949;-74
2022/12/06 03:45:13;;;;;;;10.78;5.20;;;;;;;-7.26;60.77;101715.89;1742952;81;21755;-74
2022/12/06 03:47:47;;;;;;;11.97;5.53;;;;;;;-7.25;60.78;101715.46;1715257;82;20984;-74
2022/12/06 03:50:28;;;;;;;12.23;5.40;;;;;;;-7.28;60.83;101710.30;1732353;81;21040;-74
2022/12/06 03:52:54;;;;;;;14.25;5.12;;;;;;;-7.30;60.89;101717.98;1715872;82;21129;-74
2022/12/06 03:55:21;;;;;;;10.25;4.75;;;;;;;-7.29;60.90;101714.98;1697270;82;20947;-75
2022/12/06 03:57:48;;;;;;;11.30;4.92;;;;;;;-7.32;60.96;101719.67;1699049;81;22061;-74
2022/12/06 04:00:16;;;;;;;11.20;5.45;;;;;;;-7.31;61.03;101715.39;1702800;82;21363;-75
2022/12/06 04:02:43;;;;;;;11.05;5.47;;;;;;;-7.31;61.03;101715.39;1689880;83;21055;-75
2022/12/06 04:05:09;;;;;;;9.00;5.25;;;;;;;-7.31;61.08;101711.55;1677821;83;21020;-74
2022/12/06 04:07:36;;;;;;;15.03;6.00;;;;;;;-7.31;61.13;101714.11;1677846;82;20967;-74
2022/12/06 04:10:04;;;;;;;14.75;5.95;;;;;;;-7.32;61.19;101711.97;1692794;82;21913;-74
2022/12/06 04:15:19;;;;;;;13.08;5.28;;;;;;;-7.32;61.39;101711.11;1700202;81;21019;-73
2022/12/06 04:23:02;;;;;;;13.72;6.35;;;;;;;-7.34;61.45;101720.04;1682559;82;21467;-74
2022/12/06 04:23:05;;;;;;;12.47;5.92;;;;;;;-7.33;61.49;101724.78;1685854;82;22556;-74
2022/12/06 04:25:33;;;;;;;12.20;5.75;;;;;;;-7.33;61.52;101726.06;1721680;81;21056;-74
2022/12/06 04:39:01;;;;;;;11.63;5.97;;;;;;;-7.35;61.71;101723.45;1720185;82;20991;-74
2022/12/06 04:44:13;;;;;;;9.98;5.92;;;;;;;-7.34;61.79;101720.45;1681665;84;21078;-74
2022/12/06 04:46:40;;;;;;;15.03;6.45;;;;;;;-7.33;61.80;101720.93;1695106;82;21041;-74
2022/12/06 04:49:06;;;;;;;14.73;7.05;;;;;;;-7.36;61.71;101713.16;1706836;83;21913;-74
2022/12/06 04:51:33;;;;;;;12.20;6.03;;;;;;;-7.35;61.85;101717.03;1712132;83;21119;-74
2022/12/06 04:54:00;;;;;;;15.08;6.87;;;;;;;-7.34;61.91;101714.05;1711508;82;21013;-74
2022/12/06 04:56:27;;;;;;;16.05;7.62;;;;;;;-7.34;61.96;101716.61;1693698;83;21107;-74
2022/12/06 04:58:54;;;;;;;16.12;7.17;;;;;;;-7.36;61.99;101699.91;1714245;83;21055;-74
2022/12/06 05:01:20;;;;;;;12.98;6.72;;;;;;;-7.36;61.75;101700.33;1705884;83;21981;-74
2022/12/06 05:03:47;;;;;;;13.32;7.20;;;;;;;-7.38;62.08;101695.59;1700737;82;21093;-74
2022/12/06 05:06:13;;;;;;;15.83;7.97;;;;;;;-7.38;62.16;101696.46;1686659;83;21007;-74
2022/12/06 05:08:39;;;;;;;17.75;7.62;;;;;;;-7.37;62.22;101705.02;1697297;83;20973;-74
2022/12/06 05:11:06;;;;;;;14.05;7.17;;;;;;;-7.38;62.26;101696.88;1718178;82;21434;-75
2022/12/06 05:13:34;;;;;;;12.30;6.47;;;;;;;-7.39;62.29;101697.30;1726497;80;22679;-75
2022/12/06 05:16:03;;;;;;;9.93;6.28;;;;;;;-7.40;62.47;101694.30;1707189;82;21078;-76
2022/12/06 05:18:30;;;;;;;13.13;6.55;;;;;;;-7.40;62.40;101690.87;1728457;81;21495;-75
2022/12/06 05:21:02;;;;;;;17.70;7.35;;;;;;;-7.41;62.44;101695.56;1726741;82;21046;-76
2022/12/06 05:23:29;;;;;;;15.87;6.90;;;;;;;-7.43;62.47;101689.52;1711097;81;21018;-76
2022/12/06 05:26:01;;;;;;;11.15;6.28;;;;;;;-7.42;62.51;101691.28;1720927;81;21937;-76
2022/12/06 05:28:28;;;;;;;20.77;7.67;;;;;;;-7.43;62.55;101685.67;1732645;81;21109;-75
2022/12/06 05:30:55;;;;;;;18.30;8.40;;;;;;;-7.44;62.59;101687.80;1719530;82;21533;-75
2022/12/06 05:33:23;;;;;;;17.45;7.28;;;;;;;-7.45;62.62;101687.36;1720477;82;21743;-75
2022/12/06 05:35:50;;;;;;;26.97;8.78;;;;;;;-7.45;62.70;101688.22;1719302;82;21064;-75
2022/12/06 05:38:18;;;;;;;20.35;8.75;;;;;;;-7.46;62.74;101683.93;1719591;81;21907;-75
2022/12/06 05:40:45;;;;;;;23.75;9.78;;;;;;;-7.46;62.74;101683.07;1690410;81;21090;-75
2022/12/06 05:43:11;;;;;;;22.10;9.63;;;;;;;-7.46;62.82;101682.64;1702543;81;20943;-76
2022/12/06 05:45:38;;;;;;;21.12;9.23;;;;;;;-7.46;62.83;101683.07;1680809;82;21210;-75
2022/12/06 05:48:06;;;;;;;17.92;8.63;;;;;;;-7.48;62.84;101686.90;1686163;82;21004;-75
2022/12/06 05:50:34;;;;;;;17.87;9.13;;;;;;;-7.46;62.87;101685.64;1678888;82;22322;-75
2022/12/06 05:53:00;;;;;;;19.27;8.73;;;;;;;-7.44;62.94;101687.80;1715612;81;21537;-75
2022/12/06 05:55:27;;;;;;;17.82;8.55;;;;;;;-7.46;63.00;101678.80;1716133;81;21044;-74
2022/12/06 05:57:54;;;;;;;19.40;8.85;;;;;;;-7.46;63.01;101682.64;1636588;85;21099;-75
2022/12/06 06:00:21;;;;;;;17.55;7.83;;;;;;;-7.44;62.99;101680.09;1689946;83;21047;-75
2022/12/06 06:02:48;;;;;;;21.60;8.18;;;;;;;-7.46;63.08;101687.78;1679129;84;21871;-75
2022/12/06 06:05:15;;;;;;;14.78;7.00;;;;;;;-7.45;63.08;101688.64;1674465;83;21079;-75
2022/12/06 06:07:42;;;;;;;21.87;8.53;;;;;;;-7.44;63.14;101687.37;1714570;81;21556;-75
2022/12/06 06:10:09;;;;;;;21.30;9.00;;;;;;;-7.44;63.11;101687.37;1729630;81;21000;-76
2022/12/06 06:12:37;;;;;;;20.62;9.10;;;;;;;-7.41;63.11;101683.59;1716004;82;21095;-75
2022/12/06 06:15:06;;;;;;;23.35;8.68;;;;;;;-7.39;63.15;101675.91;1716475;82;22048;-74
2022/12/06 06:17:34;;;;;;;18.17;8.20;;;;;;;-7.38;63.15;101675.93;1733752;82;21059;-75
2022/12/06 06:20:04;;;;;;;20.65;8.30;;;;;;;-7.38;63.14;101676.35;1703715;82;20992;-74
2022/12/06 06:22:37;;;;;;;16.75;7.78;;;;;;;-7.35;63.20;101677.67;1708528;82;21490;-75
2022/12/06 06:25:05;;;;;;;24.50;9.75;;;;;;;-7.33;63.16;101677.30;1724156;82;20965;-76
2022/12/06 06:27:35;;;;;;;17.20;7.62;;;;;;;-7.32;63.18;101682.45;1720621;82;21815;-75
2022/12/06 06:30:07;;;;;;;18.98;8.23;;;;;;;-7.29;63.16;101677.77;1727320;82;21474;-74
2022/12/06 06:32:34;;;;;;;15.98;7.50;;;;;;;-7.26;63.14;101674.81;1714384;81;21062;-76
2022/12/06 06:35:04;;;;;;;17.80;8.30;;;;;;;-7.21;63.12;101671.05;1710142;82;21056;-75
2022/12/06 06:37:31;;;;;;;18.12;8.58;;;;;;;-7.17;63.11;101674.50;1706670;81;20905;-75
2022/12/06 06:39:59;;;;;;;21.42;8.83;;;;;;;-7.14;63.09;101672.86;1703804;81;21806;-74
2022/12/06 06:42:27;;;;;;;15.18;8.43;;;;;;;-7.10;63.04;101669.48;1738519;82;20937;-75
2022/12/06 06:44:56;;;;;;;17.17;8.70;;;;;;;-7.05;62.98;101670.81;1702070;81;21006;-75
2022/12/06 06:47:22;;;;;;;17.07;8.48;;;;;;;-7.01;62.77;101665.75;1723099;81;21174;-75
2022/12/06 06:49:49;;;;;;;18.95;9.55;;;;;;;-6.97;62.84;101663.65;1709701;82;21481;-74
2022/12/06 06:52:18;;;;;;;19.87;8.93;;;;;;;-6.92;62.75;101662.02;1724381;81;23261;-74
2022/12/06 06:54:45;;;;;;;17.20;8.75;;;;;;;-6.86;62.73;101658.64;1720451;82;21407;-75
2022/12/06 06:57:13;;;;;;;19.37;8.83;;;;;;;-6.78;62.65;101661.31;1706439;82;21402;-75
2022/12/06 06:59:39;;;;;;;18.20;9.45;;;;;;;-6.72;62.57;101662.68;1704969;82;21057;-74
2022/12/06 07:02:13;;;;;;;18.37;8.83;;;;;;;-6.67;62.47;101661.88;1701971;82;21025;-73
2022/12/06 07:04:41;;;;;;;23.50;10.20;;;;;;;-6.59;62.29;101663.67;1720614;82;21933;-73
2022/12/06 07:07:07;;;;;;;20.92;10.08;;;;;;;-6.53;62.07;101662.47;1713177;82;21052;-75
2022/12/06 07:09:34;;;;;;;20.60;9.25;;;;;;;-6.50;61.94;101653.50;1717366;81;20970;-75
2022/12/06 07:12:01;;;;;;;16.30;8.70;;;;;;;-6.46;61.85;101654.85;1719188;82;21061;-75
2022/12/06 07:14:27;;;;;;;13.93;7.75;;;;;;;-6.39;61.75;101648.05;1714737;82;20984;-75
2022/12/06 07:16:55;;;;;;;22.45;8.68;;;;;;;-6.32;61.50;101649.84;1721681;81;22303;-74
2022/12/06 07:19:22;;;;;;;22.07;8.63;;;;;;;-6.28;61.32;101645.15;1667365;84;21057;-74
2022/12/06 07:21:49;;;;;;;17.67;7.45;;;;;;;-6.23;61.09;101643.50;1666164;84;21044;-75
2022/12/06 07:24:16;;;;;;;17.17;7.90;;;;;;;-6.19;60.91;101636.66;1664144;84;21573;-76
2022/12/06 07:26:43;;;;;;;17.35;8.23;;;;;;;-6.15;60.82;101638.02;1721658;81;21497;-76
2022/12/06 07:29:09;;;;;;;18.62;8.40;;;;;;;-6.08;60.82;101638.52;1706363;82;21802;-76
2022/12/06 07:31:39;;;;;;;16.80;7.47;;;;;;;-5.99;60.66;101637.70;1670181;83;21443;-75
2022/12/06 07:34:06;;;;;;;12.43;6.97;;;;;;;-5.92;60.37;101644.63;1690843;83;20996;-75
2022/12/06 07:36:33;;;;;;;14.60;6.85;;;;;;;-5.88;60.22;101642.50;1709445;81;21621;-74
2022/12/06 07:39:09;;;;;;;14.65;6.28;;;;;;;-5.85;60.08;101641.23;1693115;81;20966;-75
2022/12/06 07:47:22;;;;;;;17.25;7.40;;;;;;;-5.67;59.23;101643.52;1682049;84;20960;-75
2022/12/06 07:49:52;;;;;;;15.72;7.58;;;;;;;-5.65;59.13;101640.52;1690655;83;20990;-74
2022/12/06 07:52:19;;;;;;;16.00;7.37;;;;;;;-5.61;59.15;101645.69;1692914;83;21063;-74
2022/12/06 07:54:46;;;;;;;13.15;6.08;;;;;;;-5.55;59.03;101640.59;1706292;81;21923;-72
2022/12/06 07:57:12;;;;;;;12.65;6.17;;;;;;;-5.48;58.76;101633.35;1728894;81;20960;-73
2022/12/06 07:59:39;;;;;;;10.85;5.92;;;;;;;-5.43;58.63;101633.80;1682579;83;20968;-73
2022/12/06 08:02:07;;;;;;;14.43;5.97;;;;;;;-5.39;58.29;101631.27;1719151;80;21472;-73
2022/12/06 08:04:33;;;;;;;14.13;5.60;;;;;;;-5.36;58.25;101630.41;1723860;81;20940;-75
2022/12/06 08:07:00;;;;;;;13.80;6.08;;;;;;;-5.30;58.12;101622.30;1684256;82;21950;-71
2022/12/06 08:09:27;;;;;;;9.80;5.35;;;;;;;-5.25;57.97;101618.02;1724034;82;20989;-74
2022/12/06 08:11:53;;;;;;;10.00;5.28;;;;;;;-5.20;57.73;101624.50;1686156;84;20936;-73
2022/12/06 08:14:22;;;;;;;14.28;5.20;;;;;;;-5.20;57.63;101623.22;1715791;82;21501;-74
2022/12/06 08:16:48;;;;;;;8.33;4.65;;;;;;;-5.15;57.59;101623.23;1678072;83;21509;-71
2022/12/06 08:19:15;;;;;;;13.05;6.00;;;;;;;-5.08;57.66;101610.81;1680239;83;21831;-72
2022/12/06 08:21:42;;;;;;;11.85;5.65;;;;;;;-5.02;57.46;101610.82;1680109;82;21534;-74
2022/12/06 08:24:08;;;;;;;12.63;5.45;;;;;;;-4.96;57.42;101603.13;1674396;83;21128;-76
2022/12/06 08:26:36;;;;;;;10.08;5.45;;;;;;;-4.90;57.32;101600.59;1698947;83;21027;-73
2022/12/06 08:29:03;;;;;;;12.53;5.92;;;;;;;-4.83;57.19;101588.56;1681769;83;21157;-72
2022/12/06 08:31:30;;;;;;;11.25;5.72;;;;;;;-4.76;57.23;101596.33;1712586;83;21978;-73
2022/12/06 08:33:57;;;;;;;11.57;5.65;;;;;;;-4.67;57.21;101591.19;1692408;82;21392;-73
2022/12/06 08:36:23;;;;;;;12.70;5.83;;;;;;;-4.59;57.04;101583.91;1699920;82;21411;-73
2022/12/06 08:38:51;;;;;;;13.95;5.62;;;;;;;-4.52;56.94;101591.67;1678343;82;21055;-74
2022/12/06 08:44:04;;;;;;;10.05;5.22;;;;;;;-4.45;56.40;101578.34;1647562;86;21888;-72
2022/12/06 08:46:31;;;;;;;18.20;6.20;;;;;;;-4.44;56.36;101576.19;1658540;84;21085;-73
2022/12/06 08:48:58;;;;;;;15.53;6.33;;;;;;;-4.40;56.35;101568.91;1677151;83;21269;-72
2022/12/06 08:51:25;;;;;;;10.13;4.87;;;;;;;-4.33;56.42;101566.77;1722601;82;20978;-72
2022/12/06 08:53:52;;;;;;;15.05;6.37;;;;;;;-4.25;56.07;101563.73;1733081;81;20992;-74
2022/12/06 08:56:19;;;;;;;10.40;5.42;;;;;;;-4.21;55.93;101560.75;1702828;81;22984;-73
2022/12/06 08:58:46;;;;;;;10.70;5.30;;;;;;;-4.14;56.02;101554.73;1669427;82;20952;-73
2022/12/06 09:01:16;;;;;;;12.80;5.03;;;;;;;-4.05;55.80;101556.88;1698517;82;20985;-71
2022/12/06 09:03:44;;;;;;;11.70;5.22;;;;;;;-4.01;55.60;101551.27;1698235;82;21290;-74
2022/12/06 09:06:11;;;;;;;9.50;4.92;;;;;;;-3.94;55.63;101553.43;1721279;82;21039;-74
2022/12/06 09:08:38;;;;;;;13.53;5.37;;;;;;;-3.86;55.35;101549.09;1716372;81;21874;-70
2022/12/06 09:11:07;;;;;;;14.75;5.83;;;;;;;-3.85;55.11;101544.39;1708057;83;21091;-74
2022/12/06 09:13:45;;;;;;;11.15;6.03;;;;;;;-3.83;55.25;101545.23;1713156;82;21446;-71
2022/12/06 09:16:17;;;;;;;9.63;5.20;;;;;;;-3.73;55.27;101537.90;1692504;82;20990;-72
2022/12/06 10:17:01;;;;;;;12.43;6.72;;;;;;;-1.61;51.47;101408.73;1671383;82;21135;-80
2022/12/06 10:19:45;;;;;;;13.28;6.35;;;;;;;-1.58;51.64;101409.98;1675856;82;21090;-78
2022/12/06 10:22:24;;;;;;;;;;;;;;;-1.50;51.66;101404.27;1683707;83;21009;-76
2022/12/06 10:25:15;;;;;;;10.15;6.20;;;;;;;-1.49;51.69;101400.80;1681999;83;21837;-72
2022/12/06 10:28:10;;;;;;;11.10;6.10;;;;;;;-1.47;52.21;101400.33;1658638;83;21064;-77
2022/12/06 10:30:50;;;;;;;11.15;6.03;;;;;;;-1.38;52.18;101401.50;1661363;84;21109;-79
2022/12/06 10:33:30;;;;;;;13.60;5.87;;;;;;;-1.30;52.32;101386.70;1663715;84;21060;-77
2022/12/06 10:36:05;;;;;;;11.05;5.90;;;;;;;-1.24;52.46;101381.45;1687973;82;20986;-78
2022/12/06 10:38:46;;;;;;;12.58;5.72;;;;;;;-1.20;52.36;101383.09;1705710;83;21510;-76
2022/12/06 10:41:29;;;;;;;9.70;5.55;;;;;;;-1.26;52.42;101379.29;1669448;81;20955;-74
2022/12/06 10:44:13;;;;;;;10.17;5.60;;;;;;;-1.19;52.76;101373.14;1715679;82;21470;-70
2022/12/06 10:47:03;;;;;;;9.73;5.10;;;;;;;-1.06;53.05;101367.35;1730147;82;21128;-71
2022/12/06 10:49:41;;;;;;;8.60;5.03;;;;;;;-0.85;53.08;101362.70;1717058;82;21193;-71
2022/12/06 10:52:40;;;;;;;7.95;4.67;;;;;;;-0.76;52.52;101366.44;1691531;83;21920;-71
2022/12/06 10:55:24;;;;;;;15.63;5.30;;;;;;;-0.78;52.32;101356.50;1716067;82;21023;-72
2022/12/06 10:58:14;;;;;;;8.35;4.47;;;;;;;-0.82;52.54;101354.41;1731833;81;21356;-71
2022/12/06 11:01:07;;;;;;;9.00;4.53;;;;;;;-0.83;52.48;101350.11;1718614;82;21011;-70
2022/12/06 11:03:58;;;;;;;9.85;5.53;;;;;;;-0.78;52.80;101347.42;1722811;81;20980;-71
2022/12/06 11:06:46;;;;;;;9.80;4.75;;;;;;;-0.72;52.89;101339.55;1737843;82;21692;-70
2022/12/06 11:09:38;;;;;;;6.80;4.37;;;;;;;-0.69;52.59;101336.89;1719803;82;21376;-71
2022/12/06 11:12:32;;;;;;;8.05;4.83;;;;;;;-0.67;52.96;101333.41;1684846;82;21017;-70
2022/12/06 11:15:14;;;;;;;9.10;4.83;;;;;;;-0.55;53.21;101333.62;1686010;85;21846;-71
2022/12/06 11:17:48;;;;;;;10.13;5.30;;;;;;;-0.34;53.16;101328.47;1682915;84;21063;-73
2022/12/06 11:20:46;;;;;;;9.25;5.15;;;;;;;-0.26;52.35;101326.58;1686857;83;21888;-73
2022/12/06 11:23:30;;;;;;;11.28;5.25;;;;;;;-0.35;52.14;101321.13;1662852;84;21084;-74
2022/12/06 11:26:05;;;;;;;9.20;4.65;;;;;;;-0.39;52.22;101318.59;1682384;84;21544;-73
2022/12/06 11:28:42;;;;;;;11.95;5.05;;;;;;;-0.35;52.33;101312.03;1668680;84;21099;-80
2022/12/06 11:31:21;;;;;;;8.65;4.92;;;;;;;-0.28;52.54;101314.08;1717424;82;21053;-71
2022/12/06 11:33:48;;;;;;;10.65;5.12;;;;;;;-0.13;52.65;101312.45;1701568;83;21955;-72
2022/12/06 11:36:15;;;;;;;8.03;4.80;;;;;;;-0.05;52.43;101305.37;1721074;82;20991;-71
2022/12/06 11:38:41;;;;;;;9.03;4.03;;;;;;;-0.06;51.72;101304.11;1722352;81;21449;-73
2022/12/06 11:41:13;;;;;;;7.50;4.33;;;;;;;-0.15;51.86;101301.70;1678286;83;21572;-73
2022/12/06 11:43:39;;;;;;;9.13;4.10;;;;;;;-0.20;51.91;101287.49;1718879;81;21019;-72
2022/12/06 11:46:06;;;;;;;8.85;4.60;;;;;;;-0.17;52.06;101293.09;1708247;82;22528;-73
2022/12/06 11:48:34;;;;;;;7.80;4.45;;;;;;;-0.24;51.73;101285.00;1723917;82;20939;-71
2022/12/06 11:51:01;;;;;;;7.72;4.55;;;;;;;-0.29;52.37;101286.38;1718358;81;21099;-72
2022/12/06 11:53:39;;;;;;;9.70;4.87;;;;;;;-0.28;53.06;101281.63;1714586;82;21520;-75
2022/12/06 11:56:26;;;;;;;12.20;6.03;;;;;;;-0.16;53.45;101281.81;1708682;82;21060;-72
2022/12/06 11:59:19;;;;;;;11.95;6.60;;;;;;;-0.04;53.56;101286.74;1698013;82;21963;-72
2022/12/06 12:01:49;;;;;;;8.57;4.73;;;;;;;-0.01;53.22;101283.63;1708776;81;21098;-71
2022/12/06 12:04:40;;;;;;;10.85;5.37;;;;;;;-0.03;53.12;101284.55;1719052;82;21094;-72
2022/12/06 12:07:19;;;;;;;9.60;5.47;;;;;;;-0.07;53.44;101275.13;1705801;82;21083;-72
2022/12/06 12:10:00;;;;;;;10.38;4.60;;;;;;;0.04;53.42;101276.20;1700170;82;21121;-71
2022/12/06 12:15:33;;;;;;;10.93;5.42;;;;;;;-0.10;53.11;101269.53;1703747;82;21217;-72
2022/12/06 12:17:59;;;;;;;8.50;5.05;;;;;;;-0.10;53.33;101266.09;1700255;83;21063;-71
2022/12/06 12:20:32;;;;;;;6.50;4.50;;;;;;;-0.05;53.33;101266.41;1707030;82;22277;-73
2022/12/06 12:23:02;;;;;;;;;;;;;;;-0.03;53.14;101263.78;1721947;81;21039;-77
2022/12/06 12:25:33;;;;;;;10.13;5.10;;;;;;;-0.11;53.23;101254.84;1721611;81;22651;-75
2022/12/06 12:28:01;;;;;;;8.65;4.72;;;;;;;-0.05;53.65;101258.62;1699649;81;21006;-78
2022/12/06 12:30:39;;;;;;;8.23;4.42;;;;;;;0.10;53.65;101257.89;1674465;83;21047;-77
2022/12/06 12:33:11;;;;;;;8.28;4.58;;;;;;;0.17;52.92;101259.45;1699391;81;21165;-77
2022/12/06 12:35:41;;;;;;;8.98;5.03;;;;;;;0.04;52.93;101255.42;1708847;82;21412;-77
2022/12/06 12:38:16;;;;;;;8.95;4.70;;;;;;;-0.02;52.93;101255.09;1676098;84;21647;-78
2022/12/06 12:40:49;;;;;;;8.20;5.05;;;;;;;-0.07;53.16;101256.52;1723240;81;20982;-77
2022/12/06 12:43:20;;;;;;;8.88;4.37;;;;;;;-0.04;52.78;101260.33;1719562;82;20937;-78
2022/12/06 12:46:14;;;;;;;11.53;4.92;;;;;;;-0.10;52.62;101252.66;1717670;82;20983;-77
2022/12/06 12:48:43;;;;;;;11.75;4.75;;;;;;;-0.17;52.79;101252.41;1709944;83;21113;-76
2022/12/06 12:51:33;;;;;;;9.45;4.60;;;;;;;-0.17;52.88;101252.41;1709574;83;21931;-73
2022/12/06 12:54:03;;;;;;;10.60;4.75;;;;;;;-0.07;52.84;101251.31;1696466;81;21103;-76
2022/12/06 12:56:33;;;;;;;8.60;4.25;;;;;;;-0.02;52.96;101246.86;1687812;83;21017;-74
2022/12/06 12:59:00;;;;;;;8.50;4.83;;;;;;;0.10;52.68;101244.46;1717016;83;20981;-76
2022/12/06 13:01:36;;;;;;;7.92;4.83;;;;;;;0.15;52.47;101250.39;1694893;81;20965;-75
2022/12/06 13:04:26;;;;;;;8.35;4.70;;;;;;;0.11;52.27;101244.87;1700625;83;21775;-75
2022/12/06 13:07:13;;;;;;;8.15;5.12;;;;;;;0.13;52.32;101242.23;1724035;82;20972;-75
2022/12/06 13:09:57;;;;;;;8.00;5.30;;;;;;;0.12;52.20;101249.62;1732059;82;20985;-76
2022/12/06 13:12:38;;;;;;;8.58;5.17;;;;;;;0.06;52.18;101245.40;1714281;81;21370;-76